sensor_id;sensor_type;location;lat;lon;timestamp;P1;durP1;ratioP1;P2;durP2;ratioP2
1765;SDS011;880;52.452;8.656;2023-11-21T00:00:16;9.10;;;7.85;;
1765;SDS011;880;52.452;8.656;2023-11-21T00:02:44;12.93;;;8.02;;
1765;SDS011;880;52.452;8.656;2023-11-21T00:05:12;16.42;;;9.23;;
1765;SDS011;880;52.452;8.656;2023-11-21T00:07:40;12.25;;;8.23;;
1765;SDS011;880;52.452;8.656;2023-11-21T00:10:09;9.65;;;8.20;;
1765;SDS011;880;52.452;8.656;2023-11-21T00:12:37;11.35;;;9.68;;
1765;SDS011;880;52.452;8.656;2023-11-21T00:15:06;17.50;;;8.55;;
1765;SDS011;880;52.452;8.656;2023-11-21T00:17:37;10.40;;;8.13;;
1765;SDS011;880;52.452;8.656;2023-11-21T00:20:05;9.38;;;7.38;;
1765;SDS011;880;52.452;8.656;2023-11-21T00:22:33;12.80;;;8.38;;
1765;SDS011;880;52.452;8.656;2023-11-21T00:25:01;11.32;;;8.52;;
1765;SDS011;880;52.452;8.656;2023-11-21T00:27:30;14.02;;;9.50;;
1765;SDS011;880;52.452;8.656;2023-11-21T00:29:57;15.95;;;9.13;;
1765;SDS011;880;52.452;8.656;2023-11-21T00:32:24;23.63;;;10.60;;
1765;SDS011;880;52.452;8.656;2023-11-21T00:34:51;12.95;;;8.50;;
1765;SDS011;880;52.452;8.656;2023-11-21T00:37:18;11.70;;;9.25;;
1765;SDS011;880;52.452;8.656;2023-11-21T00:39:46;11.30;;;8.90;;
1765;SDS011;880;52.452;8.656;2023-11-21T00:42:13;13.70;;;9.82;;
1765;SDS011;880;52.452;8.656;2023-11-21T00:44:40;13.32;;;7.97;;
1765;SDS011;880;52.452;8.656;2023-11-21T00:47:07;14.73;;;9.50;;
1765;SDS011;880;52.452;8.656;2023-11-21T00:49:35;12.48;;;9.57;;
1765;SDS011;880;52.452;8.656;2023-11-21T00:52:02;17.15;;;10.73;;
1765;SDS011;880;52.452;8.656;2023-11-21T00:54:29;12.20;;;10.32;;
1765;SDS011;880;52.452;8.656;2023-11-21T00:56:59;10.65;;;8.90;;
1765;SDS011;880;52.452;8.656;2023-11-21T00:59:26;13.57;;;9.50;;
1765;SDS011;880;52.452;8.656;2023-11-21T01:01:53;11.88;;;9.65;;
1765;SDS011;880;52.452;8.656;2023-11-21T01:04:20;15.13;;;9.13;;
1765;SDS011;880;52.452;8.656;2023-11-21T01:06:47;18.67;;;10.13;;
1765;SDS011;880;52.452;8.656;2023-11-21T01:09:14;12.40;;;9.77;;
1765;SDS011;880;52.452;8.656;2023-11-21T01:11:44;17.30;;;8.95;;
1765;SDS011;880;52.452;8.656;2023-11-21T01:14:13;13.65;;;9.60;;
1765;SDS011;880;52.452;8.656;2023-11-21T01:16:40;14.90;;;9.93;;
1765;SDS011;880;52.452;8.656;2023-11-21T01:19:07;16.27;;;9.77;;
1765;SDS011;880;52.452;8.656;2023-11-21T01:21:35;15.00;;;10.63;;
1765;SDS011;880;52.452;8.656;2023-11-21T01:24:03;20.48;;;9.15;;
1765;SDS011;880;52.452;8.656;2023-11-21T01:26:33;11.93;;;8.48;;
1765;SDS011;880;52.452;8.656;2023-11-21T01:29:00;13.15;;;9.27;;
1765;SDS011;880;52.452;8.656;2023-11-21T01:31:27;13.68;;;9.98;;
1765;SDS011;880;52.452;8.656;2023-11-21T01:33:56;15.93;;;10.70;;
1765;SDS011;880;52.452;8.656;2023-11-21T01:36:23;15.43;;;10.05;;
1765;SDS011;880;52.452;8.656;2023-11-21T01:38:59;17.60;;;9.95;;
1765;SDS011;880;52.452;8.656;2023-11-21T01:41:26;17.23;;;11.05;;
1765;SDS011;880;52.452;8.656;2023-11-21T01:43:55;19.42;;;11.75;;
1765;SDS011;880;52.452;8.656;2023-11-21T01:46:22;15.63;;;11.00;;
1765;SDS011;880;52.452;8.656;2023-11-21T01:48:50;16.48;;;9.95;;
1765;SDS011;880;52.452;8.656;2023-11-21T01:51:19;19.50;;;12.15;;
1765;SDS011;880;52.452;8.656;2023-11-21T01:53:46;15.90;;;10.30;;
1765;SDS011;880;52.452;8.656;2023-11-21T01:56:15;21.98;;;11.23;;
1765;SDS011;880;52.452;8.656;2023-11-21T01:58:43;17.10;;;10.43;;
1765;SDS011;880;52.452;8.656;2023-11-21T02:01:13;15.23;;;10.30;;
1765;SDS011;880;52.452;8.656;2023-11-21T02:03:40;14.60;;;11.73;;
1765;SDS011;880;52.452;8.656;2023-11-21T02:06:08;15.95;;;9.55;;
1765;SDS011;880;52.452;8.656;2023-11-21T02:08:35;14.80;;;9.93;;
1765;SDS011;880;52.452;8.656;2023-11-21T02:11:04;19.73;;;11.73;;
1765;SDS011;880;52.452;8.656;2023-11-21T02:13:32;17.88;;;12.27;;
1765;SDS011;880;52.452;8.656;2023-11-21T02:15:59;16.27;;;10.88;;
1765;SDS011;880;52.452;8.656;2023-11-21T02:18:27;19.30;;;12.02;;
1765;SDS011;880;52.452;8.656;2023-11-21T02:20:55;16.63;;;10.80;;
1765;SDS011;880;52.452;8.656;2023-11-21T02:23:23;17.67;;;12.35;;
1765;SDS011;880;52.452;8.656;2023-11-21T02:25:55;20.35;;;12.85;;
1765;SDS011;880;52.452;8.656;2023-11-21T02:28:23;21.27;;;12.38;;
1765;SDS011;880;52.452;8.656;2023-11-21T02:30:52;23.45;;;11.38;;
1765;SDS011;880;52.452;8.656;2023-11-21T02:33:24;25.75;;;12.95;;
1765;SDS011;880;52.452;8.656;2023-11-21T02:35:51;25.52;;;11.85;;
1765;SDS011;880;52.452;8.656;2023-11-21T02:38:21;28.23;;;12.57;;
1765;SDS011;880;52.452;8.656;2023-11-21T02:40:48;25.92;;;11.80;;
1765;SDS011;880;52.452;8.656;2023-11-21T02:43:16;25.92;;;13.50;;
1765;SDS011;880;52.452;8.656;2023-11-21T02:45:44;25.35;;;15.05;;
1765;SDS011;880;52.452;8.656;2023-11-21T02:48:11;29.02;;;14.43;;
1765;SDS011;880;52.452;8.656;2023-11-21T02:50:38;31.50;;;16.30;;
1765;SDS011;880;52.452;8.656;2023-11-21T02:53:06;20.80;;;12.68;;
1765;SDS011;880;52.452;8.656;2023-11-21T02:55:33;21.23;;;11.90;;
1765;SDS011;880;52.452;8.656;2023-11-21T02:58:03;20.38;;;12.55;;
1765;SDS011;880;52.452;8.656;2023-11-21T03:00:30;13.88;;;11.88;;
1765;SDS011;880;52.452;8.656;2023-11-21T03:02:58;27.42;;;14.15;;
1765;SDS011;880;52.452;8.656;2023-11-21T03:05:25;29.55;;;16.00;;
1765;SDS011;880;52.452;8.656;2023-11-21T03:07:53;22.48;;;15.20;;
1765;SDS011;880;52.452;8.656;2023-11-21T03:10:20;29.90;;;14.73;;
1765;SDS011;880;52.452;8.656;2023-11-21T03:12:48;22.95;;;14.43;;
1765;SDS011;880;52.452;8.656;2023-11-21T03:15:15;20.55;;;15.10;;
1765;SDS011;880;52.452;8.656;2023-11-21T03:17:42;19.67;;;14.73;;
1765;SDS011;880;52.452;8.656;2023-11-21T03:20:09;28.52;;;14.32;;
1765;SDS011;880;52.452;8.656;2023-11-21T03:22:38;27.17;;;14.30;;
1765;SDS011;880;52.452;8.656;2023-11-21T03:25:05;25.23;;;14.18;;
1765;SDS011;880;52.452;8.656;2023-11-21T03:27:37;20.02;;;14.10;;
1765;SDS011;880;52.452;8.656;2023-11-21T03:30:07;18.13;;;12.85;;
1765;SDS011;880;52.452;8.656;2023-11-21T03:32:35;22.40;;;13.75;;
1765;SDS011;880;52.452;8.656;2023-11-21T03:35:02;27.52;;;14.00;;
1765;SDS011;880;52.452;8.656;2023-11-21T03:37:30;30.65;;;14.50;;
1765;SDS011;880;52.452;8.656;2023-11-21T03:39:57;25.30;;;15.32;;
1765;SDS011;880;52.452;8.656;2023-11-21T03:42:24;25.63;;;16.58;;
1765;SDS011;880;52.452;8.656;2023-11-21T03:44:54;30.33;;;14.30;;
1765;SDS011;880;52.452;8.656;2023-11-21T03:47:21;27.42;;;14.70;;
1765;SDS011;880;52.452;8.656;2023-11-21T03:49:48;26.13;;;15.57;;
1765;SDS011;880;52.452;8.656;2023-11-21T03:52:15;26.95;;;17.52;;
1765;SDS011;880;52.452;8.656;2023-11-21T03:54:43;25.80;;;15.30;;
1765;SDS011;880;52.452;8.656;2023-11-21T03:57:10;32.33;;;15.52;;
1765;SDS011;880;52.452;8.656;2023-11-21T03:59:41;24.05;;;13.98;;
1765;SDS011;880;52.452;8.656;2023-11-21T04:02:09;15.75;;;12.55;;
1765;SDS011;880;52.452;8.656;2023-11-21T04:04:36;27.00;;;14.70;;
1765;SDS011;880;52.452;8.656;2023-11-21T04:07:03;23.70;;;14.40;;
1765;SDS011;880;52.452;8.656;2023-11-21T04:09:31;22.92;;;15.07;;
1765;SDS011;880;52.452;8.656;2023-11-21T04:11:58;21.67;;;16.00;;
1765;SDS011;880;52.452;8.656;2023-11-21T04:14:25;23.00;;;14.85;;
1765;SDS011;880;52.452;8.656;2023-11-21T04:16:52;22.45;;;14.98;;
1765;SDS011;880;52.452;8.656;2023-11-21T04:19:20;25.92;;;15.80;;
1765;SDS011;880;52.452;8.656;2023-11-21T04:21:47;26.92;;;14.98;;
1765;SDS011;880;52.452;8.656;2023-11-21T04:24:14;19.52;;;14.90;;
1765;SDS011;880;52.452;8.656;2023-11-21T04:26:43;20.25;;;14.80;;
1765;SDS011;880;52.452;8.656;2023-11-21T04:29:10;19.13;;;14.45;;
1765;SDS011;880;52.452;8.656;2023-11-21T04:31:37;23.25;;;14.18;;
1765;SDS011;880;52.452;8.656;2023-11-21T04:34:04;16.40;;;12.43;;
1765;SDS011;880;52.452;8.656;2023-11-21T04:36:31;26.13;;;14.10;;
1765;SDS011;880;52.452;8.656;2023-11-21T04:38:58;22.15;;;13.52;;
1765;SDS011;880;52.452;8.656;2023-11-21T04:41:26;24.38;;;13.15;;
1765;SDS011;880;52.452;8.656;2023-11-21T04:43:53;14.50;;;12.68;;
1765;SDS011;880;52.452;8.656;2023-11-21T04:46:20;20.67;;;14.88;;
1765;SDS011;880;52.452;8.656;2023-11-21T04:48:48;20.83;;;13.32;;
1765;SDS011;880;52.452;8.656;2023-11-21T04:51:15;12.77;;;10.98;;
1765;SDS011;880;52.452;8.656;2023-11-21T04:53:42;21.35;;;12.90;;
1765;SDS011;880;52.452;8.656;2023-11-21T04:56:09;17.30;;;13.20;;
1765;SDS011;880;52.452;8.656;2023-11-21T04:58:37;20.70;;;12.38;;
1765;SDS011;880;52.452;8.656;2023-11-21T05:01:07;18.63;;;11.90;;
1765;SDS011;880;52.452;8.656;2023-11-21T05:03:34;20.13;;;14.02;;
1765;SDS011;880;52.452;8.656;2023-11-21T05:06:02;14.73;;;11.48;;
1765;SDS011;880;52.452;8.656;2023-11-21T05:08:31;15.27;;;11.00;;
1765;SDS011;880;52.452;8.656;2023-11-21T05:10:58;14.85;;;12.48;;
1765;SDS011;880;52.452;8.656;2023-11-21T05:13:25;16.35;;;12.00;;
1765;SDS011;880;52.452;8.656;2023-11-21T05:15:54;15.55;;;11.55;;
1765;SDS011;880;52.452;8.656;2023-11-21T05:18:25;15.82;;;11.25;;
1765;SDS011;880;52.452;8.656;2023-11-21T05:20:56;12.77;;;10.38;;
1765;SDS011;880;52.452;8.656;2023-11-21T05:23:24;19.13;;;13.32;;
1765;SDS011;880;52.452;8.656;2023-11-21T05:25:51;13.25;;;11.85;;
1765;SDS011;880;52.452;8.656;2023-11-21T05:28:18;15.68;;;10.07;;
1765;SDS011;880;52.452;8.656;2023-11-21T05:30:45;17.17;;;11.57;;
1765;SDS011;880;52.452;8.656;2023-11-21T05:33:12;23.15;;;11.85;;
1765;SDS011;880;52.452;8.656;2023-11-21T05:35:39;15.98;;;14.23;;
1765;SDS011;880;52.452;8.656;2023-11-21T05:38:06;12.25;;;10.93;;
1765;SDS011;880;52.452;8.656;2023-11-21T05:40:33;12.43;;;11.25;;
1765;SDS011;880;52.452;8.656;2023-11-21T05:43:00;13.18;;;11.95;;
1765;SDS011;880;52.452;8.656;2023-11-21T05:45:28;15.57;;;11.32;;
1765;SDS011;880;52.452;8.656;2023-11-21T05:47:57;13.32;;;12.18;;
1765;SDS011;880;52.452;8.656;2023-11-21T05:50:25;15.55;;;13.10;;
1765;SDS011;880;52.452;8.656;2023-11-21T05:52:52;11.88;;;10.85;;
1765;SDS011;880;52.452;8.656;2023-11-21T05:55:19;12.18;;;11.02;;
1765;SDS011;880;52.452;8.656;2023-11-21T05:57:52;12.60;;;10.95;;
1765;SDS011;880;52.452;8.656;2023-11-21T06:00:19;12.63;;;11.52;;
1765;SDS011;880;52.452;8.656;2023-11-21T06:02:48;12.38;;;11.13;;
1765;SDS011;880;52.452;8.656;2023-11-21T06:05:23;15.27;;;13.32;;
1765;SDS011;880;52.452;8.656;2023-11-21T06:07:53;13.10;;;11.73;;
1765;SDS011;880;52.452;8.656;2023-11-21T06:10:22;12.43;;;11.23;;
1765;SDS011;880;52.452;8.656;2023-11-21T06:12:51;13.85;;;12.25;;
1765;SDS011;880;52.452;8.656;2023-11-21T06:15:18;13.32;;;12.13;;
1765;SDS011;880;52.452;8.656;2023-11-21T06:17:47;16.15;;;11.48;;
1765;SDS011;880;52.452;8.656;2023-11-21T06:20:19;14.02;;;10.95;;
1765;SDS011;880;52.452;8.656;2023-11-21T06:22:47;12.50;;;11.20;;
1765;SDS011;880;52.452;8.656;2023-11-21T06:25:16;13.45;;;12.00;;
1765;SDS011;880;52.452;8.656;2023-11-21T06:27:44;13.85;;;11.13;;
1765;SDS011;880;52.452;8.656;2023-11-21T06:30:16;15.90;;;12.23;;
1765;SDS011;880;52.452;8.656;2023-11-21T06:32:45;13.32;;;11.57;;
1765;SDS011;880;52.452;8.656;2023-11-21T06:35:13;15.43;;;13.13;;
1765;SDS011;880;52.452;8.656;2023-11-21T06:37:42;16.63;;;13.65;;
1765;SDS011;880;52.452;8.656;2023-11-21T06:40:14;14.43;;;12.02;;
1765;SDS011;880;52.452;8.656;2023-11-21T06:42:41;14.90;;;11.95;;
1765;SDS011;880;52.452;8.656;2023-11-21T06:45:10;19.15;;;13.38;;
1765;SDS011;880;52.452;8.656;2023-11-21T06:47:38;15.48;;;12.80;;
1765;SDS011;880;52.452;8.656;2023-11-21T06:50:06;13.90;;;12.52;;
1765;SDS011;880;52.452;8.656;2023-11-21T06:52:34;15.88;;;13.75;;
1765;SDS011;880;52.452;8.656;2023-11-21T06:55:01;16.00;;;13.65;;
1765;SDS011;880;52.452;8.656;2023-11-21T06:57:28;16.40;;;14.10;;
1765;SDS011;880;52.452;8.656;2023-11-21T06:59:55;15.50;;;13.50;;
1765;SDS011;880;52.452;8.656;2023-11-21T07:02:23;17.92;;;13.48;;
1765;SDS011;880;52.452;8.656;2023-11-21T07:04:50;17.73;;;14.38;;
1765;SDS011;880;52.452;8.656;2023-11-21T07:07:18;18.90;;;13.45;;
1765;SDS011;880;52.452;8.656;2023-11-21T07:09:45;12.80;;;11.73;;
1765;SDS011;880;52.452;8.656;2023-11-21T07:12:14;14.95;;;13.50;;
1765;SDS011;880;52.452;8.656;2023-11-21T07:14:41;13.77;;;11.55;;
1765;SDS011;880;52.452;8.656;2023-11-21T07:17:11;13.82;;;12.80;;
1765;SDS011;880;52.452;8.656;2023-11-21T07:19:38;11.00;;;10.30;;
1765;SDS011;880;52.452;8.656;2023-11-21T07:22:05;10.65;;;9.85;;
1765;SDS011;880;52.452;8.656;2023-11-21T07:24:32;10.35;;;9.73;;
1765;SDS011;880;52.452;8.656;2023-11-21T07:27:00;9.98;;;9.40;;
1765;SDS011;880;52.452;8.656;2023-11-21T07:29:27;12.15;;;11.40;;
1765;SDS011;880;52.452;8.656;2023-11-21T07:31:56;11.50;;;10.77;;
1765;SDS011;880;52.452;8.656;2023-11-21T07:34:23;12.15;;;11.25;;
1765;SDS011;880;52.452;8.656;2023-11-21T07:36:50;12.15;;;11.02;;
1765;SDS011;880;52.452;8.656;2023-11-21T07:39:18;13.60;;;12.45;;
1765;SDS011;880;52.452;8.656;2023-11-21T07:41:45;13.20;;;11.80;;
1765;SDS011;880;52.452;8.656;2023-11-21T07:44:15;13.10;;;12.20;;
1765;SDS011;880;52.452;8.656;2023-11-21T07:46:44;13.73;;;12.82;;
1765;SDS011;880;52.452;8.656;2023-11-21T07:49:11;14.88;;;13.38;;
1765;SDS011;880;52.452;8.656;2023-11-21T07:51:43;14.63;;;13.32;;
1765;SDS011;880;52.452;8.656;2023-11-21T07:54:10;13.65;;;12.73;;
1765;SDS011;880;52.452;8.656;2023-11-21T07:56:38;13.93;;;12.93;;
1765;SDS011;880;52.452;8.656;2023-11-21T07:59:05;12.57;;;11.80;;
1765;SDS011;880;52.452;8.656;2023-11-21T08:01:32;13.43;;;12.48;;
1765;SDS011;880;52.452;8.656;2023-11-21T08:03:59;13.85;;;12.82;;
1765;SDS011;880;52.452;8.656;2023-11-21T08:06:30;12.45;;;11.55;;
1765;SDS011;880;52.452;8.656;2023-11-21T08:08:58;13.90;;;12.82;;
1765;SDS011;880;52.452;8.656;2023-11-21T08:11:25;12.65;;;11.85;;
1765;SDS011;880;52.452;8.656;2023-11-21T08:13:55;13.07;;;12.10;;
1765;SDS011;880;52.452;8.656;2023-11-21T08:16:23;13.07;;;12.20;;
1765;SDS011;880;52.452;8.656;2023-11-21T08:18:50;13.73;;;12.63;;
1765;SDS011;880;52.452;8.656;2023-11-21T08:21:17;13.70;;;12.60;;
1765;SDS011;880;52.452;8.656;2023-11-21T08:23:45;13.38;;;12.45;;
1765;SDS011;880;52.452;8.656;2023-11-21T08:26:15;12.40;;;11.65;;
1765;SDS011;880;52.452;8.656;2023-11-21T08:28:44;13.88;;;12.88;;
1765;SDS011;880;52.452;8.656;2023-11-21T08:31:11;14.38;;;13.30;;
1765;SDS011;880;52.452;8.656;2023-11-21T08:33:41;18.40;;;12.20;;
1765;SDS011;880;52.452;8.656;2023-11-21T08:36:09;13.75;;;12.65;;
1765;SDS011;880;52.452;8.656;2023-11-21T08:38:38;14.07;;;13.07;;
1765;SDS011;880;52.452;8.656;2023-11-21T08:41:06;14.40;;;13.32;;
1765;SDS011;880;52.452;8.656;2023-11-21T08:43:36;13.60;;;12.77;;
1765;SDS011;880;52.452;8.656;2023-11-21T08:46:06;12.07;;;11.25;;
1765;SDS011;880;52.452;8.656;2023-11-21T08:48:35;13.32;;;12.63;;
1765;SDS011;880;52.452;8.656;2023-11-21T08:51:03;13.05;;;12.25;;
1765;SDS011;880;52.452;8.656;2023-11-21T08:53:31;12.60;;;11.80;;
1765;SDS011;880;52.452;8.656;2023-11-21T08:55:59;12.07;;;11.48;;
1765;SDS011;880;52.452;8.656;2023-11-21T08:58:26;13.13;;;12.20;;
1765;SDS011;880;52.452;8.656;2023-11-21T09:00:53;13.02;;;12.05;;
1765;SDS011;880;52.452;8.656;2023-11-21T09:03:21;13.25;;;12.27;;
1765;SDS011;880;52.452;8.656;2023-11-21T09:05:48;12.13;;;11.32;;
1765;SDS011;880;52.452;8.656;2023-11-21T09:08:15;12.52;;;11.68;;
1765;SDS011;880;52.452;8.656;2023-11-21T09:10:42;12.40;;;11.60;;
1765;SDS011;880;52.452;8.656;2023-11-21T09:13:13;12.98;;;12.05;;
1765;SDS011;880;52.452;8.656;2023-11-21T09:15:43;12.45;;;11.65;;
1765;SDS011;880;52.452;8.656;2023-11-21T09:18:15;13.30;;;12.50;;
1765;SDS011;880;52.452;8.656;2023-11-21T09:23:10;12.27;;;11.45;;
1765;SDS011;880;52.452;8.656;2023-11-21T09:25:37;13.63;;;12.52;;
1765;SDS011;880;52.452;8.656;2023-11-21T09:28:05;13.73;;;12.63;;
1765;SDS011;880;52.452;8.656;2023-11-21T09:30:35;11.68;;;10.77;;
1765;SDS011;880;52.452;8.656;2023-11-21T09:33:03;13.00;;;11.93;;
1765;SDS011;880;52.452;8.656;2023-11-21T09:35:33;15.93;;;14.43;;
1765;SDS011;880;52.452;8.656;2023-11-21T09:38:00;12.95;;;11.93;;
1765;SDS011;880;52.452;8.656;2023-11-21T09:40:28;14.10;;;12.85;;
1765;SDS011;880;52.452;8.656;2023-11-21T09:42:58;15.30;;;14.00;;
1765;SDS011;880;52.452;8.656;2023-11-21T09:47:57;13.63;;;12.32;;
1765;SDS011;880;52.452;8.656;2023-11-21T09:50:25;13.32;;;12.15;;
1765;SDS011;880;52.452;8.656;2023-11-21T09:55:45;13.32;;;12.13;;
1765;SDS011;880;52.452;8.656;2023-11-21T09:58:14;13.38;;;12.15;;
1765;SDS011;880;52.452;8.656;2023-11-21T10:00:42;13.00;;;11.82;;
1765;SDS011;880;52.452;8.656;2023-11-21T10:03:11;13.75;;;12.50;;
1765;SDS011;880;52.452;8.656;2023-11-21T10:05:40;14.02;;;12.77;;
1765;SDS011;880;52.452;8.656;2023-11-21T10:08:12;14.68;;;13.32;;
1765;SDS011;880;52.452;8.656;2023-11-21T10:10:42;12.80;;;11.82;;
1765;SDS011;880;52.452;8.656;2023-11-21T10:13:11;12.40;;;11.38;;
1765;SDS011;880;52.452;8.656;2023-11-21T10:15:43;13.50;;;12.40;;
1765;SDS011;880;52.452;8.656;2023-11-21T10:18:16;12.38;;;11.23;;
1765;SDS011;880;52.452;8.656;2023-11-21T10:20:44;12.88;;;11.90;;
1765;SDS011;880;52.452;8.656;2023-11-21T10:23:21;14.10;;;12.68;;
1765;SDS011;880;52.452;8.656;2023-11-21T10:25:50;14.20;;;12.82;;
1765;SDS011;880;52.452;8.656;2023-11-21T10:28:23;13.98;;;12.60;;
1765;SDS011;880;52.452;8.656;2023-11-21T10:30:50;13.90;;;12.75;;
1765;SDS011;880;52.452;8.656;2023-11-21T10:33:20;13.25;;;11.95;;
1765;SDS011;880;52.452;8.656;2023-11-21T10:38:22;12.95;;;11.85;;
1765;SDS011;880;52.452;8.656;2023-11-21T10:40:50;13.43;;;12.07;;
1765;SDS011;880;52.452;8.656;2023-11-21T10:43:18;13.93;;;12.73;;
1765;SDS011;880;52.452;8.656;2023-11-21T10:45:45;13.73;;;12.38;;
1765;SDS011;880;52.452;8.656;2023-11-21T10:48:13;12.98;;;11.85;;
1765;SDS011;880;52.452;8.656;2023-11-21T10:50:42;14.63;;;13.27;;
1765;SDS011;880;52.452;8.656;2023-11-21T10:53:11;11.23;;;10.43;;
1765;SDS011;880;52.452;8.656;2023-11-21T10:55:39;13.55;;;12.50;;
1765;SDS011;880;52.452;8.656;2023-11-21T10:58:07;13.15;;;12.02;;
1765;SDS011;880;52.452;8.656;2023-11-21T11:00:37;12.77;;;11.50;;
1765;SDS011;880;52.452;8.656;2023-11-21T11:03:06;12.95;;;11.48;;
1765;SDS011;880;52.452;8.656;2023-11-21T11:05:43;14.55;;;13.43;;
1765;SDS011;880;52.452;8.656;2023-11-21T11:08:21;12.63;;;11.55;;
1765;SDS011;880;52.452;8.656;2023-11-21T11:10:54;12.50;;;11.63;;
1765;SDS011;880;52.452;8.656;2023-11-21T11:13:22;11.43;;;10.52;;
1765;SDS011;880;52.452;8.656;2023-11-21T11:15:50;11.18;;;10.32;;
1765;SDS011;880;52.452;8.656;2023-11-21T11:18:28;12.73;;;11.73;;
1765;SDS011;880;52.452;8.656;2023-11-21T11:21:18;12.45;;;11.55;;
1765;SDS011;880;52.452;8.656;2023-11-21T11:24:29;12.20;;;11.40;;
1765;SDS011;880;52.452;8.656;2023-11-21T11:27:22;13.02;;;12.02;;
1765;SDS011;880;52.452;8.656;2023-11-21T11:36:13;11.88;;;10.98;;
1765;SDS011;880;52.452;8.656;2023-11-21T11:39:03;11.98;;;11.07;;
1765;SDS011;880;52.452;8.656;2023-11-21T11:41:53;12.32;;;11.38;;
1765;SDS011;880;52.452;8.656;2023-11-21T11:47:20;11.25;;;10.55;;
1765;SDS011;880;52.452;8.656;2023-11-21T11:50:03;10.55;;;9.63;;
1765;SDS011;880;52.452;8.656;2023-11-21T11:52:44;10.48;;;9.73;;
1765;SDS011;880;52.452;8.656;2023-11-21T11:55:16;10.60;;;9.68;;
1765;SDS011;880;52.452;8.656;2023-11-21T11:57:49;10.45;;;9.85;;
1765;SDS011;880;52.452;8.656;2023-11-21T12:02:56;10.43;;;9.68;;
1765;SDS011;880;52.452;8.656;2023-11-21T12:05:26;11.35;;;10.65;;
1765;SDS011;880;52.452;8.656;2023-11-21T12:08:00;10.65;;;10.02;;
1765;SDS011;880;52.452;8.656;2023-11-21T12:10:36;10.80;;;9.98;;
1765;SDS011;880;52.452;8.656;2023-11-21T12:13:07;11.00;;;10.00;;
1765;SDS011;880;52.452;8.656;2023-11-21T12:15:36;10.85;;;10.20;;
1765;SDS011;880;52.452;8.656;2023-11-21T12:18:06;11.77;;;10.95;;
1765;SDS011;880;52.452;8.656;2023-11-21T12:20:33;10.57;;;9.98;;
1765;SDS011;880;52.452;8.656;2023-11-21T12:23:06;11.25;;;10.55;;
1765;SDS011;880;52.452;8.656;2023-11-21T12:25:35;10.35;;;9.65;;
1765;SDS011;880;52.452;8.656;2023-11-21T12:28:03;10.32;;;9.60;;
1765;SDS011;880;52.452;8.656;2023-11-21T12:30:33;11.15;;;10.25;;
1765;SDS011;880;52.452;8.656;2023-11-21T12:33:05;11.10;;;10.30;;
1765;SDS011;880;52.452;8.656;2023-11-21T12:35:35;10.98;;;10.27;;
1765;SDS011;880;52.452;8.656;2023-11-21T12:38:02;10.50;;;9.80;;
1765;SDS011;880;52.452;8.656;2023-11-21T12:40:31;10.23;;;9.52;;
1765;SDS011;880;52.452;8.656;2023-11-21T12:42:59;10.80;;;9.98;;
1765;SDS011;880;52.452;8.656;2023-11-21T12:45:28;11.18;;;10.20;;
1765;SDS011;880;52.452;8.656;2023-11-21T12:47:59;10.75;;;10.05;;
1765;SDS011;880;52.452;8.656;2023-11-21T12:50:35;10.90;;;9.98;;
1765;SDS011;880;52.452;8.656;2023-11-21T12:55:35;10.25;;;9.60;;
1765;SDS011;880;52.452;8.656;2023-11-21T12:58:07;11.20;;;10.20;;
1765;SDS011;880;52.452;8.656;2023-11-21T13:00:38;9.38;;;8.68;;
1765;SDS011;880;52.452;8.656;2023-11-21T13:03:10;11.40;;;10.60;;
1765;SDS011;880;52.452;8.656;2023-11-21T13:05:39;9.15;;;8.60;;
1765;SDS011;880;52.452;8.656;2023-11-21T13:08:14;10.27;;;9.52;;
1765;SDS011;880;52.452;8.656;2023-11-21T13:10:46;9.27;;;8.65;;
1765;SDS011;880;52.452;8.656;2023-11-21T13:13:22;9.68;;;9.02;;
1765;SDS011;880;52.452;8.656;2023-11-21T13:15:51;8.65;;;8.15;;
1765;SDS011;880;52.452;8.656;2023-11-21T13:18:20;10.90;;;10.10;;
1765;SDS011;880;52.452;8.656;2023-11-21T13:20:48;9.55;;;8.95;;
1765;SDS011;880;52.452;8.656;2023-11-21T13:23:16;9.88;;;9.07;;
1765;SDS011;880;52.452;8.656;2023-11-21T13:25:43;9.32;;;8.70;;
1765;SDS011;880;52.452;8.656;2023-11-21T13:28:27;10.15;;;9.35;;
1765;SDS011;880;52.452;8.656;2023-11-21T13:31:01;10.00;;;9.18;;
1765;SDS011;880;52.452;8.656;2023-11-21T13:33:47;10.52;;;9.75;;
1765;SDS011;880;52.452;8.656;2023-11-21T13:36:23;9.63;;;8.95;;
1765;SDS011;880;52.452;8.656;2023-11-21T13:38:51;9.98;;;9.13;;
1765;SDS011;880;52.452;8.656;2023-11-21T13:41:19;10.32;;;9.60;;
1765;SDS011;880;52.452;8.656;2023-11-21T13:43:46;10.88;;;10.07;;
1765;SDS011;880;52.452;8.656;2023-11-21T13:46:19;11.75;;;10.75;;
1765;SDS011;880;52.452;8.656;2023-11-21T13:48:49;11.20;;;10.48;;
1765;SDS011;880;52.452;8.656;2023-11-21T13:51:23;11.30;;;10.43;;
1765;SDS011;880;52.452;8.656;2023-11-21T13:54:02;9.90;;;9.20;;
1765;SDS011;880;52.452;8.656;2023-11-21T13:56:36;9.70;;;9.00;;
1765;SDS011;880;52.452;8.656;2023-11-21T13:59:05;10.35;;;9.55;;
1765;SDS011;880;52.452;8.656;2023-11-21T14:01:50;10.07;;;9.23;;
1765;SDS011;880;52.452;8.656;2023-11-21T14:04:26;10.45;;;9.57;;
1765;SDS011;880;52.452;8.656;2023-11-21T14:06:56;10.35;;;9.50;;
1765;SDS011;880;52.452;8.656;2023-11-21T14:09:25;10.63;;;9.73;;
1765;SDS011;880;52.452;8.656;2023-11-21T14:11:59;11.43;;;10.55;;
1765;SDS011;880;52.452;8.656;2023-11-21T14:14:31;10.88;;;9.90;;
1765;SDS011;880;52.452;8.656;2023-11-21T14:16:58;10.70;;;9.80;;
1765;SDS011;880;52.452;8.656;2023-11-21T14:19:26;10.80;;;9.90;;
1765;SDS011;880;52.452;8.656;2023-11-21T14:21:59;12.43;;;9.27;;
1765;SDS011;880;52.452;8.656;2023-11-21T14:24:27;10.70;;;9.98;;
1765;SDS011;880;52.452;8.656;2023-11-21T14:26:55;10.75;;;9.82;;
1765;SDS011;880;52.452;8.656;2023-11-21T14:29:22;10.15;;;9.25;;
1765;SDS011;880;52.452;8.656;2023-11-21T14:31:50;9.32;;;8.63;;
1765;SDS011;880;52.452;8.656;2023-11-21T14:34:19;11.02;;;10.13;;
1765;SDS011;880;52.452;8.656;2023-11-21T14:36:51;10.23;;;9.43;;
1765;SDS011;880;52.452;8.656;2023-11-21T14:39:18;10.23;;;9.43;;
1765;SDS011;880;52.452;8.656;2023-11-21T14:41:54;11.00;;;10.02;;
1765;SDS011;880;52.452;8.656;2023-11-21T14:44:26;10.77;;;9.85;;
1765;SDS011;880;52.452;8.656;2023-11-21T14:46:59;11.27;;;10.55;;
1765;SDS011;880;52.452;8.656;2023-11-21T14:49:27;10.40;;;9.35;;
1765;SDS011;880;52.452;8.656;2023-11-21T14:52:03;10.75;;;9.75;;
1765;SDS011;880;52.452;8.656;2023-11-21T14:54:43;11.45;;;10.65;;
1765;SDS011;880;52.452;8.656;2023-11-21T14:57:18;10.05;;;9.25;;
1765;SDS011;880;52.452;8.656;2023-11-21T14:59:48;10.38;;;9.48;;
1765;SDS011;880;52.452;8.656;2023-11-21T15:02:19;10.45;;;9.45;;
1765;SDS011;880;52.452;8.656;2023-11-21T15:05:10;10.40;;;9.50;;
1765;SDS011;880;52.452;8.656;2023-11-21T15:07:43;13.02;;;11.88;;
1765;SDS011;880;52.452;8.656;2023-11-21T15:10:12;11.50;;;10.40;;
1765;SDS011;880;52.452;8.656;2023-11-21T15:15:10;10.63;;;9.75;;
1765;SDS011;880;52.452;8.656;2023-11-21T15:17:40;13.02;;;11.75;;
1765;SDS011;880;52.452;8.656;2023-11-21T15:20:09;10.65;;;9.93;;
1765;SDS011;880;52.452;8.656;2023-11-21T15:22:42;10.82;;;10.02;;
1765;SDS011;880;52.452;8.656;2023-11-21T15:25:09;10.52;;;9.63;;
1765;SDS011;880;52.452;8.656;2023-11-21T15:27:37;10.27;;;9.48;;
1765;SDS011;880;52.452;8.656;2023-11-21T15:30:04;10.73;;;9.88;;
1765;SDS011;880;52.452;8.656;2023-11-21T15:32:32;11.38;;;10.50;;
1765;SDS011;880;52.452;8.656;2023-11-21T15:35:00;10.52;;;9.70;;
1765;SDS011;880;52.452;8.656;2023-11-21T15:37:27;11.25;;;9.40;;
1765;SDS011;880;52.452;8.656;2023-11-21T15:39:55;11.18;;;10.13;;
1765;SDS011;880;52.452;8.656;2023-11-21T15:42:22;9.90;;;9.07;;
1765;SDS011;880;52.452;8.656;2023-11-21T15:44:49;10.15;;;9.40;;